BAW347 EGLL-LFMN
Flight info
| Callsign | BAW347 |
|---|---|
| Flight time | N/A |
| Altitude | 33000 |
| Route | MAXIT Y803 MID UL612 VEULE DCT KOTAP DCT KETEX DCT KOTIS DCT KUKOR DCT UTUVA DCT LERGA DCT LIQID DCT LATAM DCT TUNUR DCT NISAR |
| Aircraft | A20N/M-SDE2E3FGHIRWXY/LB1 |
Departure
| Time | N/A |
|---|---|
| Airport | London Heathrow Airport (EGLL) |
Arrival
| Time | 2026-05-03 20:30 |
|---|---|
| Airport | Nice-Côte d'Azur Airport (LFMN) |
| Time | Latitude | Longitude | Altitude | Speed | Heading |
|---|---|---|---|---|---|
| 2026-05-03 20:15 | 43.63858 | 6.20515 | 15388 ft | 369 kts | 132° |
| 2026-05-03 20:15 | 43.62225 | 6.23303 | 14801 ft | 365 kts | 132° |
| 2026-05-03 20:15 | 43.60638 | 6.26009 | 14198 ft | 363 kts | 132° |
| 2026-05-03 20:15 | 43.59095 | 6.28638 | 13673 ft | 357 kts | 132° |
| 2026-05-03 20:16 | 43.57548 | 6.31272 | 13100 ft | 352 kts | 132° |
| 2026-05-03 20:16 | 43.55998 | 6.33908 | 12595 ft | 346 kts | 132° |
| 2026-05-03 20:16 | 43.54649 | 6.36205 | 12432 ft | 332 kts | 132° |
| 2026-05-03 20:16 | 43.53254 | 6.38581 | 12256 ft | 312 kts | 132° |
| 2026-05-03 20:17 | 43.51934 | 6.40828 | 11985 ft | 295 kts | 132° |
| 2026-05-03 20:17 | 43.50667 | 6.42978 | 11569 ft | 285 kts | 132° |
| 2026-05-03 20:17 | 43.49336 | 6.44986 | 11320 ft | 283 kts | 137° |
| 2026-05-03 20:17 | 43.47962 | 6.46947 | 11087 ft | 286 kts | 137° |
| 2026-05-03 20:18 | 43.46586 | 6.48922 | 10728 ft | 282 kts | 136° |
| 2026-05-03 20:18 | 43.45262 | 6.50831 | 10364 ft | 273 kts | 136° |
| 2026-05-03 20:18 | 43.43975 | 6.52691 | 10016 ft | 263 kts | 136° |
| 2026-05-03 20:18 | 43.42711 | 6.54511 | 9547 ft | 267 kts | 136° |
| 2026-05-03 20:19 | 43.41385 | 6.56412 | 9368 ft | 278 kts | 136° |
| 2026-05-03 20:19 | 43.40046 | 6.58337 | 9126 ft | 277 kts | 136° |
| 2026-05-03 20:19 | 43.38908 | 6.60481 | 8709 ft | 278 kts | 117° |
| 2026-05-03 20:19 | 43.38460 | 6.63042 | 8047 ft | 284 kts | 93° |
| 2026-05-03 20:20 | 43.38528 | 6.65729 | 7650 ft | 275 kts | 90° |
| 2026-05-03 20:20 | 43.38596 | 6.68297 | 7286 ft | 265 kts | 91° |
| 2026-05-03 20:20 | 43.38649 | 6.70790 | 6937 ft | 256 kts | 91° |
| 2026-05-03 20:20 | 43.38693 | 6.73167 | 6783 ft | 240 kts | 91° |
| 2026-05-03 20:21 | 43.38732 | 6.75352 | 6668 ft | 224 kts | 91° |
| 2026-05-03 20:21 | 43.38766 | 6.77452 | 6393 ft | 217 kts | 91° |
| 2026-05-03 20:21 | 43.38798 | 6.79532 | 5977 ft | 216 kts | 91° |
| 2026-05-03 20:21 | 43.38829 | 6.81585 | 5596 ft | 215 kts | 91° |
| 2026-05-03 20:22 | 43.38924 | 6.83588 | 5210 ft | 215 kts | 78° |
| 2026-05-03 20:22 | 43.39635 | 6.85358 | 4979 ft | 217 kts | 46° |
| 2026-05-03 20:22 | 43.40952 | 6.86688 | 5260 ft | 250 kts | 40° |
| 2026-05-03 20:22 | 43.42234 | 6.88447 | 5273 ft | 266 kts | 51° |
| 2026-05-03 20:23 | 43.43476 | 6.90309 | 5245 ft | 267 kts | 47° |
| 2026-05-03 20:23 | 43.44756 | 6.92083 | 5192 ft | 259 kts | 47° |
| 2026-05-03 20:23 | 43.45984 | 6.93789 | 5060 ft | 243 kts | 47° |
| 2026-05-03 20:23 | 43.47144 | 6.95399 | 4933 ft | 226 kts | 47° |
| 2026-05-03 20:24 | 43.48216 | 6.96885 | 4703 ft | 216 kts | 47° |
| 2026-05-03 20:24 | 43.49258 | 6.98333 | 4407 ft | 211 kts | 47° |
| 2026-05-03 20:24 | 43.50275 | 6.99744 | 4143 ft | 204 kts | 47° |
| 2026-05-03 20:24 | 43.51255 | 7.01102 | 3870 ft | 198 kts | 47° |
| 2026-05-03 20:25 | 43.52236 | 7.02462 | 3619 ft | 198 kts | 47° |
| 2026-05-03 20:25 | 43.53192 | 7.03788 | 3411 ft | 194 kts | 47° |
| 2026-05-03 20:25 | 43.54125 | 7.05081 | 3139 ft | 187 kts | 46° |
| 2026-05-03 20:25 | 43.55023 | 7.06325 | 2875 ft | 180 kts | 46° |
| 2026-05-03 20:26 | 43.55889 | 7.07524 | 2631 ft | 174 kts | 46° |
| 2026-05-03 20:26 | 43.56735 | 7.08696 | 2404 ft | 167 kts | 46° |
| 2026-05-03 20:26 | 43.57523 | 7.09788 | 2192 ft | 153 kts | 46° |
| 2026-05-03 20:26 | 43.58229 | 7.10764 | 1989 ft | 138 kts | 46° |
| 2026-05-03 20:27 | 43.58907 | 7.11704 | 1805 ft | 138 kts | 46° |
| 2026-05-03 20:27 | 43.59581 | 7.12637 | 1612 ft | 136 kts | 46° |
| 2026-05-03 20:27 | 43.60247 | 7.13560 | 1425 ft | 137 kts | 46° |
| 2026-05-03 20:27 | 43.60925 | 7.14498 | 1236 ft | 138 kts | 46° |
| 2026-05-03 20:28 | 43.61606 | 7.15439 | 1048 ft | 138 kts | 45° |
| 2026-05-03 20:28 | 43.61826 | 7.15744 | 991 ft | 138 kts | 46° |
| 2026-05-03 20:28 | 43.62175 | 7.16229 | 891 ft | 138 kts | 46° |
| 2026-05-03 20:29 | 43.62850 | 7.17163 | 712 ft | 137 kts | 46° |
| 2026-05-03 20:29 | 43.63518 | 7.18098 | 530 ft | 135 kts | 47° |
| 2026-05-03 20:29 | 43.64172 | 7.19030 | 375 ft | 135 kts | 46° |
| 2026-05-03 20:29 | 43.64847 | 7.19951 | 209 ft | 136 kts | 45° |
| 2026-05-03 20:30 | 43.65525 | 7.20873 | 37 ft | 133 kts | 46° |
| 2026-05-03 20:30 | 43.66090 | 7.21656 | 21 ft | 96 kts | 45° |
| 2026-05-03 20:30 | 43.66409 | 7.22089 | 25 ft | 26 kts | 38° |
| 2026-05-03 20:30 | 43.66508 | 7.22097 | 22 ft | 13 kts | 281° |
| 2026-05-03 20:31 | 43.66531 | 7.22044 | 22 ft | 0 kts | 314° |
| 2026-05-03 20:31 | 43.66537 | 7.22036 | 22 ft | 6 kts | 314° |
| 2026-05-03 20:32 | 43.66580 | 7.21983 | 21 ft | 0 kts | 318° |
| 2026-05-03 20:32 | 43.66582 | 7.21979 | 21 ft | 3 kts | 318° |
| 2026-05-03 20:32 | 43.66613 | 7.21940 | 21 ft | 16 kts | 318° |
| 2026-05-03 20:32 | 43.66615 | 7.21815 | 22 ft | 10 kts | 221° |
| 2026-05-03 20:33 | 43.66582 | 7.21771 | 24 ft | 14 kts | 202° |
| 2026-05-03 20:33 | 43.66506 | 7.21671 | 23 ft | 16 kts | 225° |
| 2026-05-03 20:33 | 43.66414 | 7.21539 | 21 ft | 21 kts | 224° |
| 2026-05-03 20:33 | 43.66348 | 7.21369 | 19 ft | 19 kts | 249° |
| 2026-05-03 20:34 | 43.66328 | 7.21183 | 19 ft | 21 kts | 262° |
| 2026-05-03 20:34 | 43.66319 | 7.20977 | 22 ft | 22 kts | 275° |
| 2026-05-03 20:34 | 43.66314 | 7.20857 | 27 ft | 0 kts | 260° |
| 2026-05-03 20:35 | 43.66313 | 7.20830 | 25 ft | 5 kts | 279° |
| 2026-05-03 20:35 | 43.66325 | 7.20811 | 24 ft | 3 kts | 332° |
| 2026-05-03 20:35 | 43.66366 | 7.20800 | 24 ft | 2 kts | 349° |
| 2026-05-03 20:35 | 43.66372 | 7.20799 | 23 ft | 0 kts | 350° |